sensor_id;sensor_type;location;lat;lon;timestamp;pressure;altitude;pressure_sealevel;temperature;humidity
75188;BME280;63762;51.334;22.108;2022-12-29T00:05:55;101765.70;;;2.92;68.55
75188;BME280;63762;51.334;22.108;2022-12-29T00:15:56;101744.59;;;2.87;68.86
75188;BME280;63762;51.334;22.108;2022-12-29T00:26:05;101752.37;;;2.93;68.91
75188;BME280;63762;51.334;22.108;2022-12-29T00:36:31;101758.30;;;3.01;67.96
75188;BME280;63762;51.334;22.108;2022-12-29T00:46:35;101751.00;;;3.08;67.79
75188;BME280;63762;51.334;22.108;2022-12-29T00:56:36;101722.69;;;3.07;67.67
75188;BME280;63762;51.334;22.108;2022-12-29T01:06:38;101730.29;;;3.17;67.67
75188;BME280;63762;51.334;22.108;2022-12-29T01:16:39;101725.40;;;3.05;67.82
75188;BME280;63762;51.334;22.108;2022-12-29T01:26:46;101730.91;;;2.99;67.70
75188;BME280;63762;51.334;22.108;2022-12-29T01:36:54;101714.38;;;2.90;68.25
75188;BME280;63762;51.334;22.108;2022-12-29T01:47:00;101716.89;;;2.94;67.98
75188;BME280;63762;51.334;22.108;2022-12-29T01:57:14;101707.59;;;2.81;68.29
75188;BME280;63762;51.334;22.108;2022-12-29T02:07:21;101688.42;;;2.72;68.68
75188;BME280;63762;51.334;22.108;2022-12-29T02:48:14;101650.64;;;2.62;69.20
75188;BME280;63762;51.334;22.108;2022-12-29T02:58:22;101646.26;;;2.61;69.21
75188;BME280;63762;51.334;22.108;2022-12-29T03:18:46;101656.99;;;2.58;69.40
75188;BME280;63762;51.334;22.108;2022-12-29T03:28:52;101644.44;;;2.63;69.13
75188;BME280;63762;51.334;22.108;2022-12-29T03:39:01;101644.94;;;2.74;69.02
75188;BME280;63762;51.334;22.108;2022-12-29T03:49:03;101653.01;;;2.71;68.82
75188;BME280;63762;51.334;22.108;2022-12-29T03:59:04;101645.63;;;2.79;68.27
75188;BME280;63762;51.334;22.108;2022-12-29T04:09:05;101640.02;;;2.88;68.55
75188;BME280;63762;51.334;22.108;2022-12-29T04:19:06;101631.10;;;2.91;67.86
75188;BME280;63762;51.334;22.108;2022-12-29T04:29:08;101621.52;;;2.85;68.34
75188;BME280;63762;51.334;22.108;2022-12-29T04:39:09;101618.82;;;2.87;68.31
75188;BME280;63762;51.334;22.108;2022-12-29T04:49:10;101623.19;;;2.89;69.07
75188;BME280;63762;51.334;22.108;2022-12-29T04:59:16;101609.55;;;2.98;71.10
75188;BME280;63762;51.334;22.108;2022-12-29T05:09:23;101607.84;;;2.71;73.05
75188;BME280;63762;51.334;22.108;2022-12-29T05:19:30;101598.45;;;2.61;75.01
75188;BME280;63762;51.334;22.108;2022-12-29T05:29:37;101574.44;;;2.64;74.89
75188;BME280;63762;51.334;22.108;2022-12-29T05:39:45;101560.03;;;2.71;74.42
75188;BME280;63762;51.334;22.108;2022-12-29T05:49:52;101558.30;;;2.70;73.22
75188;BME280;63762;51.334;22.108;2022-12-29T05:59:59;101547.78;;;2.67;72.93
75188;BME280;63762;51.334;22.108;2022-12-29T06:10:07;101549.09;;;2.80;72.86
75188;BME280;63762;51.334;22.108;2022-12-29T06:20:13;101561.34;;;2.84;71.76
75188;BME280;63762;51.334;22.108;2022-12-29T06:30:20;101539.88;;;2.90;71.43
75188;BME280;63762;51.334;22.108;2022-12-29T06:40:28;101548.67;;;2.92;70.55
75188;BME280;63762;51.334;22.108;2022-12-29T06:50:35;101538.05;;;2.92;69.41
75188;BME280;63762;51.334;22.108;2022-12-29T07:00:41;101539.34;;;3.05;69.19
75188;BME280;63762;51.334;22.108;2022-12-29T07:10:49;101551.27;;;3.18;68.44
75188;BME280;63762;51.334;22.108;2022-12-29T07:20:56;101552.77;;;3.25;67.75
75188;BME280;63762;51.334;22.108;2022-12-29T07:31:04;101534.84;;;3.30;67.24
75188;BME280;63762;51.334;22.108;2022-12-29T07:41:11;101552.08;;;3.43;66.68
75188;BME280;63762;51.334;22.108;2022-12-29T07:51:17;101532.19;;;3.53;66.01
75188;BME280;63762;51.334;22.108;2022-12-29T08:01:24;101506.70;;;3.48;66.49
75188;BME280;63762;51.334;22.108;2022-12-29T08:11:32;101516.98;;;3.57;66.21
75188;BME280;63762;51.334;22.108;2022-12-29T08:21:39;101511.20;;;3.69;66.29
75188;BME280;63762;51.334;22.108;2022-12-29T08:31:46;101522.22;;;3.81;65.86
75188;BME280;63762;51.334;22.108;2022-12-29T08:41:54;101518.90;;;3.98;65.04
75188;BME280;63762;51.334;22.108;2022-12-29T08:52:00;101510.90;;;4.19;64.41
75188;BME280;63762;51.334;22.108;2022-12-29T09:02:10;101502.30;;;4.34;63.13
75188;BME280;63762;51.334;22.108;2022-12-29T09:12:16;101489.63;;;4.39;63.66
75188;BME280;63762;51.334;22.108;2022-12-29T09:22:21;101479.87;;;4.60;63.74
75188;BME280;63762;51.334;22.108;2022-12-29T09:32:29;101468.32;;;4.59;62.94
75188;BME280;63762;51.334;22.108;2022-12-29T09:42:45;101455.55;;;4.68;62.99
75188;BME280;63762;51.334;22.108;2022-12-29T09:52:55;101471.08;;;4.78;63.20
75188;BME280;63762;51.334;22.108;2022-12-29T10:03:06;101479.69;;;5.03;63.08
75188;BME280;63762;51.334;22.108;2022-12-29T10:33:42;101434.02;;;5.29;61.92
75188;BME280;63762;51.334;22.108;2022-12-29T10:43:48;101425.90;;;5.51;62.01
75188;BME280;63762;51.334;22.108;2022-12-29T10:54:03;101427.44;;;5.73;61.43
75188;BME280;63762;51.334;22.108;2022-12-29T11:24:30;101405.72;;;6.50;60.91
75188;BME280;63762;51.334;22.108;2022-12-29T11:34:34;101407.27;;;7.04;59.17
75188;BME280;63762;51.334;22.108;2022-12-29T11:44:38;101399.87;;;7.09;58.88
75188;BME280;63762;51.334;22.108;2022-12-29T11:54:42;101386.88;;;6.86;59.13
75188;BME280;63762;51.334;22.108;2022-12-29T12:04:43;101373.83;;;7.28;58.43
75188;BME280;63762;51.334;22.108;2022-12-29T12:14:56;101375.45;;;7.46;57.53
75188;BME280;63762;51.334;22.108;2022-12-29T12:25:10;101369.07;;;7.33;58.00
75188;BME280;63762;51.334;22.108;2022-12-29T12:35:17;101372.77;;;7.46;58.66
75188;BME280;63762;51.334;22.108;2022-12-29T13:26:25;101369.52;;;7.41;58.11
75188;BME280;63762;51.334;22.108;2022-12-29T13:36:34;101388.41;;;7.38;58.92
75188;BME280;63762;51.334;22.108;2022-12-29T13:46:41;101395.82;;;7.18;59.50
75188;BME280;63762;51.334;22.108;2022-12-29T14:07:04;101382.92;;;6.93;60.47
75188;BME280;63762;51.334;22.108;2022-12-29T14:17:12;101373.34;;;6.89;61.29
75188;BME280;63762;51.334;22.108;2022-12-29T14:37:34;101390.68;;;6.65;61.15
75188;BME280;63762;51.334;22.108;2022-12-29T14:47:38;101381.42;;;6.55;61.95
75188;BME280;63762;51.334;22.108;2022-12-29T14:57:52;101390.39;;;6.54;61.97
75188;BME280;63762;51.334;22.108;2022-12-29T15:07:49;101384.09;;;6.55;61.97
75188;BME280;63762;51.334;22.108;2022-12-29T15:17:51;101405.93;;;6.63;62.01
75188;BME280;63762;51.334;22.108;2022-12-29T15:27:55;101389.88;;;6.63;61.55
75188;BME280;63762;51.334;22.108;2022-12-29T15:37:59;101395.87;;;6.68;61.26
75188;BME280;63762;51.334;22.108;2022-12-29T15:48:00;101390.36;;;6.71;61.65
75188;BME280;63762;51.334;22.108;2022-12-29T15:58:04;101401.93;;;6.71;61.87
75188;BME280;63762;51.334;22.108;2022-12-29T16:18:26;101373.09;;;6.61;61.75
75188;BME280;63762;51.334;22.108;2022-12-29T16:28:36;101402.49;;;6.61;62.18
75188;BME280;63762;51.334;22.108;2022-12-29T16:38:39;101387.56;;;6.40;62.38
75188;BME280;63762;51.334;22.108;2022-12-29T16:48:49;101384.44;;;6.32;62.45
75188;BME280;63762;51.334;22.108;2022-12-29T16:58:59;101397.30;;;6.24;62.82
75188;BME280;63762;51.334;22.108;2022-12-29T17:08:59;101390.16;;;6.24;63.13
75188;BME280;63762;51.334;22.108;2022-12-29T17:19:01;101401.96;;;6.20;63.11
75188;BME280;63762;51.334;22.108;2022-12-29T17:29:03;101402.88;;;6.02;63.39
75188;BME280;63762;51.334;22.108;2022-12-29T17:39:05;101405.48;;;6.04;63.98
75188;BME280;63762;51.334;22.108;2022-12-29T17:49:11;101397.00;;;5.96;64.18
75188;BME280;63762;51.334;22.108;2022-12-29T17:59:14;101391.66;;;5.96;64.37
75188;BME280;63762;51.334;22.108;2022-12-29T18:09:15;101422.33;;;5.87;64.43
75188;BME280;63762;51.334;22.108;2022-12-29T18:19:18;101413.47;;;5.87;64.46
75188;BME280;63762;51.334;22.108;2022-12-29T18:29:19;101414.68;;;5.80;64.53
75188;BME280;63762;51.334;22.108;2022-12-29T18:39:20;101412.16;;;5.77;64.94
75188;BME280;63762;51.334;22.108;2022-12-29T18:49:22;101417.80;;;5.71;65.38
75188;BME280;63762;51.334;22.108;2022-12-29T18:59:24;101415.05;;;5.72;65.60
75188;BME280;63762;51.334;22.108;2022-12-29T19:09:25;101421.74;;;5.81;65.41
75188;BME280;63762;51.334;22.108;2022-12-29T19:19:27;101427.52;;;5.72;65.60
75188;BME280;63762;51.334;22.108;2022-12-29T19:29:29;101430.20;;;5.72;65.83
75188;BME280;63762;51.334;22.108;2022-12-29T19:39:36;101430.66;;;5.81;65.54
75188;BME280;63762;51.334;22.108;2022-12-29T19:49:44;101429.63;;;5.84;65.69
75188;BME280;63762;51.334;22.108;2022-12-29T19:59:51;101422.84;;;5.77;65.97
75188;BME280;63762;51.334;22.108;2022-12-29T20:13:05;101419.25;;;5.59;66.46
75188;BME280;63762;51.334;22.108;2022-12-29T20:23:12;101418.66;;;5.53;66.67
75188;BME280;63762;51.334;22.108;2022-12-29T20:33:19;101418.12;;;5.46;67.33
75188;BME280;63762;51.334;22.108;2022-12-29T20:43:26;101409.09;;;5.49;67.31
75188;BME280;63762;51.334;22.108;2022-12-29T20:53:35;101413.13;;;5.39;67.94
75188;BME280;63762;51.334;22.108;2022-12-29T21:03:40;101417.90;;;5.51;67.77
75188;BME280;63762;51.334;22.108;2022-12-29T21:13:48;101417.34;;;5.61;67.63
75188;BME280;63762;51.334;22.108;2022-12-29T21:23:55;101428.61;;;5.68;67.71
75188;BME280;63762;51.334;22.108;2022-12-29T21:34:05;101426.16;;;5.82;67.18
75188;BME280;63762;51.334;22.108;2022-12-29T21:44:09;101434.18;;;5.82;67.43
75188;BME280;63762;51.334;22.108;2022-12-29T21:54:24;101432.16;;;5.87;67.37
75188;BME280;63762;51.334;22.108;2022-12-29T22:04:38;101427.08;;;5.81;67.73
75188;BME280;63762;51.334;22.108;2022-12-29T22:14:51;101426.16;;;5.82;67.65
75188;BME280;63762;51.334;22.108;2022-12-29T22:24:52;101429.63;;;5.84;67.63
75188;BME280;63762;51.334;22.108;2022-12-29T22:34:53;101415.33;;;5.85;67.71
75188;BME280;63762;51.334;22.108;2022-12-29T22:44:54;101432.77;;;5.92;67.78
75188;BME280;63762;51.334;22.108;2022-12-29T22:54:59;101423.20;;;5.88;67.68
75188;BME280;63762;51.334;22.108;2022-12-29T23:05:06;101431.06;;;5.91;67.49
75188;BME280;63762;51.334;22.108;2022-12-29T23:15:13;101436.25;;;5.94;67.67
75188;BME280;63762;51.334;22.108;2022-12-29T23:25:20;101450.85;;;5.87;67.87
75188;BME280;63762;51.334;22.108;2022-12-29T23:35:27;101450.85;;;5.87;68.13
75188;BME280;63762;51.334;22.108;2022-12-29T23:45:36;101433.26;;;5.83;68.40
75188;BME280;63762;51.334;22.108;2022-12-29T23:55:43;101443.94;;;5.83;68.40
